createdAt,value
2023-02-01T00:00:59.818Z,100983.56
2023-02-01T00:03:27.184Z,100983.97
2023-02-01T00:06:00.514Z,100989.50
2023-02-01T00:08:28.095Z,100994.44
2023-02-01T00:11:09.686Z,100991.00
2023-02-01T00:13:41.184Z,100981.44
2023-02-01T00:16:09.771Z,100987.41
2023-02-01T00:18:36.503Z,100980.78
2023-02-01T00:21:03.374Z,100981.44
2023-02-01T00:23:34.086Z,100982.28
2023-02-01T00:26:05.746Z,100977.16
2023-02-01T00:28:33.109Z,100971.63
2023-02-01T00:31:01.576Z,100969.94
2023-02-01T00:33:29.146Z,100977.81
2023-02-01T00:36:06.306Z,100959.94
2023-02-01T00:38:37.120Z,100936.28
2023-02-01T00:41:08.893Z,100960.38
2023-02-01T00:43:36.638Z,100962.69
2023-02-01T00:46:03.964Z,100960.97
2023-02-01T00:48:31.142Z,100967.81
2023-02-01T00:51:09.104Z,100954.13
2023-02-01T00:53:36.181Z,100969.25
2023-02-01T00:56:02.871Z,100962.19
2023-02-01T00:58:29.535Z,100963.03
2023-02-01T01:01:12.814Z,100956.91
2023-02-01T01:03:41.977Z,100956.66
2023-02-01T01:06:11.439Z,100958.41
2023-02-01T01:08:38.713Z,100966.94
2023-02-01T01:11:07.587Z,100959.50
2023-02-01T01:13:34.685Z,100958.63
2023-02-01T01:16:03.719Z,100959.19
2023-02-01T01:18:32.011Z,100955.19
2023-02-01T01:20:58.633Z,100959.50
2023-02-01T01:23:25.554Z,100958.41
2023-02-01T01:25:53.044Z,100955.22
2023-02-01T01:28:20.126Z,100956.72
2023-02-01T01:30:46.613Z,100950.34
2023-02-01T01:33:13.235Z,100949.72
2023-02-01T01:35:39.787Z,100957.38
2023-02-01T01:38:06.481Z,100951.22
2023-02-01T01:40:33.304Z,100949.72
2023-02-01T01:43:00.284Z,100956.94
2023-02-01T01:45:26.802Z,100964.41
2023-02-01T01:47:57.142Z,100953.72
2023-02-01T01:50:34.777Z,100953.09
2023-02-01T01:53:04.297Z,100946.94
2023-02-01T01:55:34.666Z,100937.56
2023-02-01T01:58:09.389Z,100938.59
2023-02-01T02:00:36.170Z,100950.31
2023-02-01T02:03:24.998Z,100935.81
2023-02-01T02:05:54.779Z,100933.94
2023-02-01T02:08:22.480Z,100939.69
2023-02-01T02:11:01.715Z,100929.44
2023-02-01T02:13:43.664Z,100941.78
2023-02-01T02:16:27.004Z,100931.34
2023-02-01T02:19:18.144Z,100922.19
2023-02-01T02:22:06.472Z,100921.53
2023-02-01T02:24:35.947Z,100920.69
2023-02-01T02:27:24.619Z,100930.25
2023-02-01T02:30:38.238Z,100917.47
2023-02-01T02:33:36.831Z,100929.44
2023-02-01T02:36:19.015Z,100921.53
2023-02-01T02:38:59.590Z,100907.09
2023-02-01T02:41:53.296Z,100909.44
2023-02-01T02:44:51.552Z,100902.38
2023-02-01T02:47:28.556Z,100886.44
2023-02-01T02:50:30.162Z,100883.88
2023-02-01T02:53:37.240Z,100897.94
2023-02-01T02:56:25.709Z,100897.28
2023-02-01T02:59:11.565Z,100890.47
2023-02-01T03:01:58.936Z,100886.44
2023-02-01T03:04:26.457Z,100894.03
2023-02-01T03:06:54.788Z,100875.03
2023-02-01T03:09:36.321Z,100885.06
2023-02-01T03:12:28.670Z,100865.94
2023-02-01T03:15:01.425Z,100861.78
2023-02-01T03:17:34.717Z,100867.56
2023-02-01T03:20:04.508Z,100871.59
2023-02-01T03:22:32.860Z,100873.56
2023-02-01T03:25:05.737Z,100868.50
2023-02-01T03:27:37.819Z,100863.22
2023-02-01T03:30:33.047Z,100857.72
2023-02-01T03:33:03.603Z,100852.19
2023-02-01T03:35:50.965Z,100848.56
2023-02-01T03:38:25.999Z,100853.69
2023-02-01T03:41:01.480Z,100851.56
2023-02-01T03:43:33.494Z,100853.03
2023-02-01T03:46:05.323Z,100839.00
2023-02-01T03:48:33.101Z,100841.75
2023-02-01T03:51:04.314Z,100823.47
2023-02-01T03:53:32.513Z,100825.34
2023-02-01T03:55:59.269Z,100810.91
2023-02-01T03:58:25.867Z,100832.78
2023-02-01T04:00:59.734Z,100837.91
2023-02-01T04:03:28.883Z,100837.72
2023-02-01T04:05:56.858Z,100843.47
2023-02-01T04:08:26.984Z,100856.88
2023-02-01T04:10:53.490Z,100829.00
2023-02-01T04:13:20.031Z,100837.31
2023-02-01T04:15:50.605Z,100837.09
2023-02-01T04:18:17.447Z,100835.81
2023-02-01T04:20:44.860Z,100831.09
2023-02-01T04:23:11.375Z,100831.97
2023-02-01T04:25:37.833Z,100844.13
2023-02-01T04:28:05.662Z,100837.94
2023-02-01T04:30:32.171Z,100829.88
2023-02-01T04:32:58.720Z,100838.16
2023-02-01T04:35:25.181Z,100836.00
2023-02-01T04:37:51.731Z,100835.81
2023-02-01T04:40:18.248Z,100834.31
2023-02-01T04:42:44.822Z,100831.34
2023-02-01T04:45:11.641Z,100835.41
2023-02-01T04:47:38.368Z,100828.78
2023-02-01T04:50:06.642Z,100837.31
2023-02-01T04:52:33.851Z,100831.78
2023-02-01T04:55:01.208Z,100843.28
2023-02-01T04:57:27.810Z,100828.38
2023-02-01T04:59:54.317Z,100824.75
2023-02-01T05:02:21.044Z,100836.66
2023-02-01T05:04:47.634Z,100834.75
2023-02-01T05:07:14.276Z,100835.81
2023-02-01T05:09:40.798Z,100850.22
2023-02-01T05:12:26.221Z,100860.28
2023-02-01T05:14:52.997Z,100847.72
2023-02-01T05:17:19.503Z,100846.66
2023-02-01T05:19:46.074Z,100844.97
2023-02-01T05:22:12.607Z,100845.81
2023-02-01T05:24:39.171Z,100840.09
2023-02-01T05:27:05.660Z,100837.91
2023-02-01T05:29:32.418Z,100836.25
2023-02-01T05:32:05.264Z,100839.44
2023-02-01T05:34:38.344Z,100841.56
2023-02-01T05:37:04.805Z,100830.09
2023-02-01T05:39:31.336Z,100843.47
2023-02-01T05:41:57.822Z,100821.34
2023-02-01T05:44:24.357Z,100828.59
2023-02-01T05:46:53.174Z,100832.41
2023-02-01T05:49:19.729Z,100811.78
2023-02-01T05:51:46.516Z,100826.44
2023-02-01T05:54:13.335Z,100822.22
2023-02-01T05:56:41.633Z,100815.38
2023-02-01T05:59:08.704Z,100805.56
2023-02-01T06:01:35.220Z,100811.50
2023-02-01T06:04:01.869Z,100816.63
2023-02-01T06:06:28.405Z,100818.56
2023-02-01T06:08:55.047Z,100813.63
2023-02-01T06:11:32.329Z,100820.69
2023-02-01T06:13:59.618Z,100809.41
2023-02-01T06:16:26.280Z,100823.47
2023-02-01T06:18:52.917Z,100821.50
2023-02-01T06:21:24.541Z,100822.59
2023-02-01T06:23:52.664Z,100838.38
2023-02-01T06:26:19.523Z,100833.25
2023-02-01T06:28:46.532Z,100841.50
2023-02-01T06:31:13.560Z,100843.03
2023-02-01T06:33:40.739Z,100843.91
2023-02-01T06:36:10.786Z,100843.63
2023-02-01T06:38:37.462Z,100833.47
2023-02-01T06:41:04.731Z,100834.97
2023-02-01T06:43:33.458Z,100829.84
2023-02-01T06:46:02.176Z,100834.31
2023-02-01T06:48:28.779Z,100826.84
2023-02-01T06:50:55.713Z,100827.72
2023-02-01T06:53:22.316Z,100826.25
2023-02-01T06:55:56.497Z,100837.09
2023-02-01T06:58:23.793Z,100848.16
2023-02-01T07:00:51.240Z,100844.53
2023-02-01T07:03:17.844Z,100853.25
2023-02-01T07:05:44.331Z,100841.72
2023-02-01T07:08:10.907Z,100853.38
2023-02-01T07:10:38.368Z,100853.81
2023-02-01T07:13:05.653Z,100855.75
2023-02-01T07:15:32.163Z,100855.75
2023-02-01T07:17:58.735Z,100850.88
2023-02-01T07:20:25.537Z,100853.38
2023-02-01T07:22:58.371Z,100848.31
2023-02-01T07:25:25.131Z,100847.66
2023-02-01T07:27:51.642Z,100857.00
2023-02-01T07:30:18.616Z,100861.28
2023-02-01T07:32:45.217Z,100857.50
2023-02-01T07:35:11.824Z,100861.28
2023-02-01T07:37:38.413Z,100873.69
2023-02-01T07:40:05.846Z,100879.00
2023-02-01T07:42:32.713Z,100871.78
2023-02-01T07:45:07.867Z,100874.34
2023-02-01T07:47:41.795Z,100874.53
2023-02-01T07:50:09.053Z,100861.34
2023-02-01T07:52:35.633Z,100877.53
2023-02-01T07:55:02.136Z,100880.06
2023-02-01T07:57:28.727Z,100881.28
2023-02-01T08:00:13.921Z,100881.34
2023-02-01T08:02:41.655Z,100871.13
2023-02-01T08:05:08.703Z,100876.66
2023-02-01T08:07:35.257Z,100875.81
2023-02-01T08:10:02.017Z,100867.75
2023-02-01T08:12:28.552Z,100881.34
2023-02-01T08:14:57.279Z,100877.09
2023-02-01T08:17:24.012Z,100882.84
2023-02-01T08:19:50.571Z,100885.41
2023-02-01T08:22:17.312Z,100887.13
2023-02-01T08:24:43.783Z,100883.25
2023-02-01T08:27:10.421Z,100887.97
2023-02-01T08:29:37.131Z,100897.97
2023-02-01T08:32:04.103Z,100890.72
2023-02-01T08:34:30.655Z,100889.22
2023-02-01T08:37:01.104Z,100894.72
2023-02-01T08:39:27.895Z,100902.00
2023-02-01T08:42:13.158Z,100890.06
2023-02-01T08:44:39.741Z,100899.38
2023-02-01T08:47:06.227Z,100902.56
2023-02-01T08:49:32.979Z,100916.25
2023-02-01T08:52:04.043Z,100909.03
2023-02-01T08:54:33.699Z,100922.22
2023-02-01T08:57:00.428Z,100926.69
2023-02-01T08:59:28.660Z,100920.28
2023-02-01T09:01:57.047Z,100908.34
2023-02-01T09:04:23.716Z,100906.88
2023-02-01T09:06:50.386Z,100904.34
2023-02-01T09:09:16.906Z,100902.22
2023-02-01T09:11:43.495Z,100892.84
2023-02-01T09:14:10.005Z,100890.50
2023-02-01T09:16:36.532Z,100881.91
2023-02-01T09:19:24.441Z,100875.28
2023-02-01T09:21:49.572Z,100863.19
2023-02-01T09:24:16.170Z,100878.72
2023-02-01T09:26:43.136Z,100878.03
2023-02-01T09:29:12.301Z,100868.44
2023-02-01T09:31:44.169Z,100871.56
2023-02-01T09:34:13.840Z,100866.69
2023-02-01T09:36:40.426Z,100872.13
2023-02-01T09:39:07.132Z,100881.31
2023-02-01T09:41:40.130Z,100877.47
2023-02-01T09:44:27.661Z,100872.22
2023-02-01T09:47:00.694Z,100876.72
2023-02-01T09:49:31.420Z,100875.28
2023-02-01T09:51:59.939Z,100878.63
2023-02-01T09:54:30.918Z,100859.34
2023-02-01T09:57:24.231Z,100860.34
2023-02-01T10:00:01.487Z,100862.22
2023-02-01T10:02:29.527Z,100858.84
2023-02-01T10:05:01.726Z,100859.31
2023-02-01T10:07:50.071Z,100858.66
2023-02-01T10:10:32.055Z,100866.72
2023-02-01T10:13:28.390Z,100854.19
2023-02-01T10:16:17.794Z,100851.25
2023-02-01T10:18:47.100Z,100848.66
2023-02-01T10:21:40.526Z,100862.16
2023-02-01T10:24:26.052Z,100865.13
2023-02-01T10:27:02.701Z,100867.16
2023-02-01T10:29:38.637Z,100870.31
2023-02-01T10:32:14.150Z,100881.47
2023-02-01T10:34:41.852Z,100857.19
2023-02-01T10:37:20.302Z,100867.66
2023-02-01T10:39:50.894Z,100868.50
2023-02-01T10:42:21.173Z,100860.63
2023-02-01T10:44:49.051Z,100874.88
2023-02-01T10:47:16.673Z,100868.56
2023-02-01T10:50:06.174Z,100865.38
2023-02-01T10:52:55.037Z,100851.72
2023-02-01T10:55:39.375Z,100848.78
2023-02-01T10:58:18.295Z,100858.75
2023-02-01T11:00:48.221Z,100850.75
2023-02-01T11:03:57.033Z,100848.16
2023-02-01T11:06:36.567Z,100854.72
2023-02-01T11:09:09.190Z,100844.78
2023-02-01T11:11:57.624Z,100839.94
2023-02-01T11:14:40.087Z,100843.13
2023-02-01T11:17:15.974Z,100826.69
2023-02-01T11:19:47.035Z,100819.75
2023-02-01T11:22:14.949Z,100815.84
2023-02-01T11:24:47.067Z,100810.84
2023-02-01T11:27:27.636Z,100797.88
2023-02-01T11:30:00.986Z,100805.31
2023-02-01T11:32:28.291Z,100784.78
2023-02-01T11:35:05.381Z,100785.72
2023-02-01T11:37:37.887Z,100764.06
2023-02-01T11:40:26.347Z,100777.44
2023-02-01T11:43:15.104Z,100783.09
2023-02-01T11:45:41.721Z,100779.00
2023-02-01T11:48:26.303Z,100785.03
2023-02-01T11:51:11.981Z,100781.41
2023-02-01T11:54:06.233Z,100791.88
2023-02-01T11:56:38.580Z,100792.97
2023-02-01T11:59:08.074Z,100789.38
2023-02-01T12:02:01.587Z,100782.81
2023-02-01T12:04:45.509Z,100774.97
2023-02-01T12:07:30.600Z,100759.88
2023-02-01T12:10:17.542Z,100776.53
2023-02-01T12:13:41.819Z,100777.34
2023-02-01T12:16:23.117Z,100754.31
2023-02-01T12:19:28.693Z,100761.47
2023-02-01T12:22:31.813Z,100759.34
2023-02-01T12:25:21.603Z,100757.78
2023-02-01T12:28:24.505Z,100748.16
2023-02-01T12:31:24.641Z,100746.63
2023-02-01T12:33:58.073Z,100731.72
2023-02-01T12:36:44.836Z,100740.19
2023-02-01T12:39:18.924Z,100739.38
2023-02-01T12:42:00.919Z,100738.13
2023-02-01T12:44:35.678Z,100737.25
2023-02-01T12:47:10.915Z,100748.97
2023-02-01T12:49:56.598Z,100744.56
2023-02-01T12:52:38.536Z,100745.81
2023-02-01T12:55:50.601Z,100759.88
2023-02-01T12:58:23.773Z,100758.66
2023-02-01T13:01:00.588Z,100742.31
2023-02-01T13:03:40.278Z,100747.78
2023-02-01T13:06:16.680Z,100750.75
2023-02-01T13:08:51.628Z,100740.03
2023-02-01T13:11:40.340Z,100744.31
2023-02-01T13:14:26.180Z,100730.44
2023-02-01T13:16:54.396Z,100731.66
2023-02-01T13:19:30.410Z,100737.25
2023-02-01T13:22:08.898Z,100731.47
2023-02-01T13:24:44.405Z,100739.38
2023-02-01T13:27:13.831Z,100732.88
2023-02-01T13:29:49.715Z,100729.78
2023-02-01T13:33:51.434Z,100725.09
2023-02-01T13:35:50.408Z,100719.56
2023-02-01T13:38:47.981Z,100722.72
2023-02-01T13:41:16.467Z,100729.56
2023-02-01T13:43:48.800Z,100731.63
2023-02-01T13:46:17.015Z,100721.59
2023-02-01T13:48:58.239Z,100725.34
2023-02-01T13:51:44.976Z,100728.06
2023-02-01T13:54:43.813Z,100726.13
2023-02-01T13:57:38.709Z,100716.03
2023-02-01T14:00:31.405Z,100730.78
2023-02-01T14:03:01.444Z,100713.75
2023-02-01T14:05:28.117Z,100718.94
2023-02-01T14:08:06.407Z,100717.88
2023-02-01T14:10:59.148Z,100720.84
2023-02-01T14:13:54.839Z,100724.56
2023-02-01T14:16:21.488Z,100739.22
2023-02-01T14:18:59.536Z,100736.53
2023-02-01T14:21:31.988Z,100745.25
2023-02-01T14:24:02.058Z,100732.63
2023-02-01T14:26:34.706Z,100750.28
2023-02-01T14:29:18.619Z,100754.41
2023-02-01T14:32:16.519Z,100756.56
2023-02-01T14:34:49.505Z,100759.03
2023-02-01T14:37:19.394Z,100749.47
2023-02-01T14:39:46.045Z,100753.97
2023-02-01T14:42:27.798Z,100752.03
2023-02-01T14:44:59.282Z,100760.75
2023-02-01T14:47:29.971Z,100741.53
2023-02-01T14:50:03.262Z,100774.72
2023-02-01T14:52:39.195Z,100763.28
2023-02-01T14:55:11.113Z,100766.59
2023-02-01T14:57:41.319Z,100771.53
2023-02-01T15:00:29.607Z,100759.75
2023-02-01T15:03:18.448Z,100759.47
2023-02-01T15:05:45.229Z,100773.41
2023-02-01T15:08:20.142Z,100769.06
2023-02-01T15:10:51.005Z,100768.94
2023-02-01T15:13:26.568Z,100771.53
2023-02-01T15:16:06.849Z,100733.84
2023-02-01T15:18:33.733Z,100774.91
2023-02-01T15:21:26.840Z,100776.06
2023-02-01T15:23:49.682Z,100771.81
2023-02-01T15:26:27.747Z,100773.03
2023-02-01T15:28:54.509Z,100773.72
2023-02-01T15:31:36.578Z,100768.72
2023-02-01T15:34:04.051Z,100779.47
2023-02-01T15:36:32.667Z,100768.53
2023-02-01T15:39:20.687Z,100763.31
2023-02-01T15:41:50.037Z,100758.47
2023-02-01T15:44:27.676Z,100765.31
2023-02-01T15:46:54.408Z,100761.00
2023-02-01T15:49:31.845Z,100756.25
2023-02-01T15:52:01.626Z,100773.28
2023-02-01T15:54:59.183Z,100775.06
2023-02-01T15:57:34.031Z,100757.63
2023-02-01T16:00:08.709Z,100763.16
2023-02-01T16:02:54.096Z,100760.09
2023-02-01T16:05:36.685Z,100758.56
2023-02-01T16:08:05.644Z,100754.72
2023-02-01T16:10:38.567Z,100766.06
2023-02-01T16:13:05.082Z,100774.75
2023-02-01T16:15:31.885Z,100766.31
2023-02-01T16:17:58.609Z,100761.69
2023-02-01T16:20:25.413Z,100769.94
2023-02-01T16:22:51.991Z,100762.91
2023-02-01T16:25:18.626Z,100775.00
2023-02-01T16:27:45.350Z,100769.78
2023-02-01T16:30:12.462Z,100778.38
2023-02-01T16:32:39.646Z,100791.50
2023-02-01T16:35:19.905Z,100794.38
2023-02-01T16:37:46.520Z,100793.22
2023-02-01T16:40:17.660Z,100778.66
2023-02-01T16:42:44.267Z,100772.59
2023-02-01T16:45:10.957Z,100764.16
2023-02-01T16:47:39.379Z,100808.34
2023-02-01T16:50:23.100Z,100881.47
2023-02-01T16:52:50.938Z,100876.06
2023-02-01T16:55:20.380Z,100873.19
2023-02-01T16:57:46.935Z,100864.00
2023-02-01T17:00:24.114Z,100871.91
2023-02-01T17:02:52.566Z,100877.00
2023-02-01T17:05:19.184Z,100863.69
2023-02-01T17:07:46.281Z,100874.06
2023-02-01T17:10:36.986Z,100867.47
2023-02-01T17:13:03.719Z,100863.84
2023-02-01T17:15:35.490Z,100864.69
2023-02-01T17:18:03.210Z,100869.16
2023-02-01T17:20:32.899Z,100867.22
2023-02-01T17:22:59.956Z,100860.00
2023-02-01T17:25:28.488Z,100863.81
2023-02-01T17:27:55.130Z,100867.16
2023-02-01T17:30:21.968Z,100871.03
2023-02-01T17:32:48.706Z,100874.44
2023-02-01T17:35:22.292Z,100874.25
2023-02-01T17:37:50.189Z,100870.84
2023-02-01T17:40:17.760Z,100868.53
2023-02-01T17:42:44.981Z,100872.41
2023-02-01T17:45:31.756Z,100863.06
2023-02-01T17:47:58.445Z,100869.22
2023-02-01T17:50:28.242Z,100872.41
2023-02-01T17:52:54.851Z,100868.56
2023-02-01T17:55:24.871Z,100873.69
2023-02-01T17:57:51.716Z,100880.72
2023-02-01T18:00:19.346Z,100883.50
2023-02-01T18:02:46.285Z,100876.25
2023-02-01T18:05:22.425Z,100877.75
2023-02-01T18:07:49.602Z,100907.94
2023-02-01T18:10:17.673Z,100901.56
2023-02-01T18:12:45.203Z,100926.59
2023-02-01T18:15:21.875Z,100943.03
2023-02-01T18:17:49.165Z,100925.59
2023-02-01T18:20:22.347Z,100916.06
2023-02-01T18:22:49.602Z,100907.06
2023-02-01T18:25:27.968Z,100884.06
2023-02-01T18:27:57.102Z,100898.66
2023-02-01T18:30:30.617Z,100933.47
2023-02-01T18:32:57.462Z,100916.47
2023-02-01T18:35:28.786Z,100886.97
2023-02-01T18:37:56.475Z,100878.66
2023-02-01T18:40:29.977Z,100885.16
2023-02-01T18:42:58.053Z,100887.03
2023-02-01T18:45:41.562Z,100888.09
2023-02-01T18:48:10.218Z,100903.09
2023-02-01T18:50:38.510Z,100903.94
2023-02-01T18:53:07.869Z,100899.31
2023-02-01T18:55:34.522Z,100896.34
2023-02-01T18:58:03.413Z,100898.91
2023-02-01T19:00:30.293Z,100899.34
2023-02-01T19:02:56.925Z,100895.97
2023-02-01T19:05:24.094Z,100914.88
2023-02-01T19:07:50.962Z,100905.91
2023-02-01T19:10:22.056Z,100901.03
2023-02-01T19:12:50.474Z,100895.88
2023-02-01T19:15:18.238Z,100875.66
2023-02-01T19:17:46.848Z,100890.31
2023-02-01T19:20:15.867Z,100880.47
2023-02-01T19:22:42.987Z,100887.09
2023-02-01T19:25:14.525Z,100895.25
2023-02-01T19:27:41.398Z,100900.16
2023-02-01T19:30:12.658Z,100915.72
2023-02-01T19:32:40.648Z,100913.47
2023-02-01T19:35:08.337Z,100909.66
2023-02-01T19:37:35.085Z,100919.69
2023-02-01T19:40:01.927Z,100914.13
2023-02-01T19:42:29.032Z,100917.53
2023-02-01T19:44:55.627Z,100909.88
2023-02-01T19:47:22.238Z,100911.97
2023-02-01T19:49:48.829Z,100913.84
2023-02-01T19:52:15.387Z,100904.44
2023-02-01T19:54:41.939Z,100911.91
2023-02-01T19:57:08.592Z,100897.84
2023-02-01T19:59:35.286Z,100888.28
2023-02-01T20:02:00.989Z,100882.31
2023-02-01T20:04:27.546Z,100891.25
2023-02-01T20:06:55.936Z,100892.28
2023-02-01T20:09:26.731Z,100900.19
2023-02-01T20:11:54.294Z,100908.84
2023-02-01T20:14:21.934Z,100907.84
2023-02-01T20:16:48.488Z,100911.44
2023-02-01T20:19:15.627Z,100901.66
2023-02-01T20:21:42.476Z,100912.72
2023-02-01T20:24:13.100Z,100915.72
2023-02-01T20:26:40.899Z,100918.50
2023-02-01T20:29:07.540Z,100917.84
2023-02-01T20:31:34.214Z,100912.31
2023-02-01T20:34:01.711Z,100926.44
2023-02-01T20:36:29.913Z,100919.03
2023-02-01T20:38:57.366Z,100921.81
2023-02-01T20:41:25.003Z,100925.88
2023-02-01T20:43:51.569Z,100932.25
2023-02-01T20:46:18.175Z,100918.38
2023-02-01T20:48:47.068Z,100930.69
2023-02-01T20:51:15.867Z,100930.06
2023-02-01T20:53:43.075Z,100933.47
2023-02-01T20:56:12.664Z,100934.97
2023-02-01T20:58:39.761Z,100927.34
2023-02-01T21:01:06.660Z,100930.09
2023-02-01T21:03:34.890Z,100934.13
2023-02-01T21:06:02.616Z,100945.38
2023-02-01T21:08:29.946Z,100959.50
2023-02-01T21:10:57.302Z,100949.47
2023-02-01T21:13:25.733Z,100964.59
2023-02-01T21:15:52.902Z,100951.56
2023-02-01T21:18:19.767Z,100962.19
2023-02-01T21:20:49.429Z,100955.22
2023-02-01T21:23:17.044Z,100961.88
2023-02-01T21:25:44.378Z,100982.06
2023-02-01T21:28:11.768Z,100976.63
2023-02-01T21:30:38.561Z,100977.13
2023-02-01T21:33:05.858Z,100975.56
2023-02-01T21:35:32.443Z,100981.50
2023-02-01T21:37:59.326Z,100973.81
2023-02-01T21:40:25.885Z,100991.25
2023-02-01T21:42:52.543Z,100981.88
2023-02-01T21:45:19.097Z,100986.34
2023-02-01T21:47:45.666Z,101002.66
2023-02-01T21:50:18.629Z,101005.28
2023-02-01T21:52:45.785Z,101009.78
2023-02-01T21:55:13.584Z,101013.94
2023-02-01T21:57:40.636Z,101012.94
2023-02-01T22:00:09.729Z,101001.72
2023-02-01T22:02:36.404Z,100992.94
2023-02-01T22:05:06.507Z,101009.34
2023-02-01T22:07:35.948Z,100992.59
2023-02-01T22:10:03.434Z,100993.69
2023-02-01T22:12:29.951Z,101009.53
2023-02-01T22:14:56.595Z,101013.56
2023-02-01T22:17:23.087Z,101008.72
2023-02-01T22:19:49.666Z,101009.22
2023-02-01T22:22:16.674Z,101003.25
2023-02-01T22:24:43.275Z,100996.13
2023-02-01T22:27:14.362Z,100995.78
2023-02-01T22:29:42.625Z,101005.56
2023-02-01T22:32:09.493Z,101000.88
2023-02-01T22:34:36.063Z,101005.44
2023-02-01T22:37:03.020Z,101003.47
2023-02-01T22:39:29.629Z,101000.47
2023-02-01T22:41:56.121Z,101007.59
2023-02-01T22:44:23.685Z,101002.50
2023-02-01T22:46:50.479Z,101018.19
2023-02-01T22:49:17.132Z,101039.81
2023-02-01T22:51:43.999Z,101045.16
2023-02-01T22:54:16.885Z,101047.22
2023-02-01T22:56:43.555Z,101049.59
2023-02-01T22:59:13.186Z,101052.41
2023-02-01T23:01:40.070Z,101039.59
2023-02-01T23:04:09.292Z,101032.91
2023-02-01T23:06:36.123Z,101031.81
2023-02-01T23:09:11.115Z,101044.84
2023-02-01T23:11:38.793Z,101041.59
2023-02-01T23:14:06.032Z,101042.88
2023-02-01T23:16:32.778Z,101030.28
2023-02-01T23:19:00.023Z,101040.53
2023-02-01T23:21:26.684Z,101045.22
2023-02-01T23:23:56.012Z,101048.13
2023-02-01T23:26:25.921Z,101050.94
2023-02-01T23:28:55.164Z,101049.28
2023-02-01T23:31:30.668Z,101059.56
2023-02-01T23:33:59.383Z,101053.09
2023-02-01T23:36:27.534Z,101060.16
2023-02-01T23:38:54.859Z,101054.59
2023-02-01T23:41:22.954Z,101051.38
2023-02-01T23:43:59.288Z,101050.69
2023-02-01T23:46:28.998Z,101047.88
2023-02-01T23:48:56.297Z,101040.44
2023-02-01T23:51:23.910Z,101045.50
2023-02-01T23:53:50.967Z,101038.03
2023-02-01T23:56:22.315Z,101048.22
2023-02-01T23:58:51.572Z,101056.41
